createdAt,value
2017-11-19T00:00:32.586Z,78.90
2017-11-19T00:02:58.857Z,79.14
2017-11-19T00:05:25.124Z,78.86
2017-11-19T00:07:51.381Z,79.07
2017-11-19T00:10:17.715Z,79.25
2017-11-19T00:12:43.959Z,78.79
2017-11-19T00:15:10.329Z,78.71
2017-11-19T00:17:36.829Z,78.56
2017-11-19T00:20:03.265Z,78.91
2017-11-19T00:22:29.618Z,78.09
2017-11-19T00:24:56.126Z,78.46
2017-11-19T00:27:22.494Z,78.61
2017-11-19T00:29:48.890Z,78.81
2017-11-19T00:32:15.348Z,77.75
2017-11-19T00:34:41.772Z,78.41
2017-11-19T00:37:08.141Z,78.30
2017-11-19T00:39:34.541Z,78.60
2017-11-19T00:42:00.877Z,78.45
2017-11-19T00:44:27.233Z,78.49
2017-11-19T00:46:53.662Z,78.69
2017-11-19T00:49:20.010Z,78.98
2017-11-19T00:51:46.345Z,78.91
2017-11-19T00:54:12.814Z,78.50
2017-11-19T00:56:39.163Z,78.88
2017-11-19T00:59:05.505Z,79.10
2017-11-19T01:01:31.914Z,78.73
2017-11-19T01:03:58.310Z,78.73
2017-11-19T01:06:24.779Z,78.97
2017-11-19T01:08:51.204Z,78.98
2017-11-19T01:11:17.562Z,79.05
2017-11-19T01:13:43.974Z,79.22
2017-11-19T01:16:10.387Z,79.36
2017-11-19T01:18:36.739Z,79.76
2017-11-19T01:21:03.086Z,79.31
2017-11-19T01:23:29.502Z,79.66
2017-11-19T01:25:55.854Z,79.46
2017-11-19T01:28:22.214Z,79.42
2017-11-19T01:30:48.627Z,79.13
2017-11-19T01:33:15.061Z,79.00
2017-11-19T01:35:41.566Z,79.03
2017-11-19T01:38:08.033Z,78.76
2017-11-19T01:40:34.477Z,78.87
2017-11-19T01:43:00.851Z,78.94
2017-11-19T01:45:27.403Z,79.08
2017-11-19T01:47:53.782Z,78.45
2017-11-19T01:50:20.198Z,78.70
2017-11-19T01:52:46.804Z,78.10
2017-11-19T01:55:13.185Z,78.83
2017-11-19T01:57:39.557Z,78.44
2017-11-19T02:00:05.925Z,78.58
2017-11-19T02:02:32.398Z,78.89
2017-11-19T02:04:58.868Z,78.83
2017-11-19T02:07:25.405Z,78.49
2017-11-19T02:09:51.857Z,78.67
2017-11-19T02:12:18.238Z,78.84
2017-11-19T02:14:44.618Z,78.66
2017-11-19T02:17:11.085Z,78.65
2017-11-19T02:19:37.467Z,78.73
2017-11-19T02:22:04.111Z,78.69
2017-11-19T02:24:30.474Z,78.90
2017-11-19T02:26:56.820Z,78.98
2017-11-19T02:29:23.205Z,78.99
2017-11-19T02:31:49.566Z,79.25
2017-11-19T02:34:15.938Z,79.37
2017-11-19T02:36:42.345Z,79.01
2017-11-19T02:39:08.706Z,78.82
2017-11-19T02:41:35.060Z,78.69
2017-11-19T02:44:01.497Z,78.62
2017-11-19T02:46:27.875Z,78.50
2017-11-19T02:48:54.217Z,78.73
2017-11-19T02:51:20.609Z,78.43
2017-11-19T02:53:46.969Z,78.66
2017-11-19T02:56:13.318Z,78.88
2017-11-19T02:58:39.787Z,79.08
2017-11-19T03:01:06.220Z,78.64
2017-11-19T03:03:32.630Z,78.39
2017-11-19T03:05:59.046Z,78.65
2017-11-19T03:08:25.519Z,78.60
2017-11-19T03:10:51.910Z,78.73
2017-11-19T03:13:18.354Z,78.95
2017-11-19T03:15:44.738Z,78.76
2017-11-19T03:18:11.109Z,78.61
2017-11-19T03:20:37.534Z,78.35
2017-11-19T03:23:03.966Z,78.34
2017-11-19T03:25:30.349Z,78.67
2017-11-19T03:27:56.753Z,78.49
2017-11-19T03:30:23.113Z,78.40
2017-11-19T03:32:49.457Z,78.39
2017-11-19T03:35:16.040Z,77.96
2017-11-19T03:37:42.389Z,78.19
2017-11-19T03:40:08.846Z,78.31
2017-11-19T03:42:35.249Z,78.58
2017-11-19T03:45:01.614Z,78.70
2017-11-19T03:47:28.012Z,78.79
2017-11-19T03:49:54.414Z,78.76
2017-11-19T03:52:20.761Z,78.41
2017-11-19T03:54:47.137Z,78.06
2017-11-19T03:57:13.570Z,78.36
2017-11-19T03:59:39.929Z,78.56
2017-11-19T04:02:06.281Z,78.57
2017-11-19T04:04:32.698Z,78.52
2017-11-19T04:06:59.078Z,78.52
2017-11-19T04:09:25.424Z,78.19
2017-11-19T04:11:51.821Z,78.63
2017-11-19T04:14:18.193Z,78.54
2017-11-19T04:16:44.542Z,78.62
2017-11-19T04:19:10.926Z,78.58
2017-11-19T04:21:37.297Z,78.53
2017-11-19T04:24:03.773Z,78.72
2017-11-19T04:26:30.258Z,78.87
2017-11-19T04:28:56.658Z,78.63
2017-11-19T04:31:23.049Z,78.66
2017-11-19T04:33:49.762Z,78.61
2017-11-19T04:36:16.177Z,78.42
2017-11-19T04:38:42.599Z,78.71
2017-11-19T04:41:09.029Z,78.44
2017-11-19T04:43:35.413Z,78.64
2017-11-19T04:46:01.761Z,79.00
2017-11-19T04:48:28.180Z,78.74
2017-11-19T04:50:54.518Z,78.63
2017-11-19T04:53:20.869Z,78.85
2017-11-19T04:55:47.560Z,78.70
2017-11-19T04:58:13.906Z,78.67
2017-11-19T05:00:40.273Z,77.42
2017-11-19T05:03:06.681Z,77.42
2017-11-19T05:05:33.049Z,77.56
2017-11-19T05:07:59.450Z,76.89
2017-11-19T05:10:25.865Z,77.23
2017-11-19T05:12:52.217Z,77.69
2017-11-19T05:15:18.561Z,77.75
2017-11-19T05:17:44.980Z,77.51
2017-11-19T05:20:11.330Z,77.04
2017-11-19T05:22:37.725Z,77.30
2017-11-19T05:25:04.254Z,77.52
2017-11-19T05:27:30.658Z,77.73
2017-11-19T05:29:57.011Z,77.99
2017-11-19T05:32:23.402Z,77.46
2017-11-19T05:34:49.774Z,77.42
2017-11-19T05:37:16.188Z,77.68
2017-11-19T05:39:42.601Z,77.76
2017-11-19T05:42:08.946Z,77.86
2017-11-19T05:44:35.298Z,78.32
2017-11-19T05:47:01.686Z,78.62
2017-11-19T05:49:28.045Z,78.69
2017-11-19T05:51:54.398Z,78.72
2017-11-19T05:54:20.789Z,78.80
2017-11-19T05:56:47.130Z,78.75
2017-11-19T05:59:13.502Z,78.68
2017-11-19T06:01:39.928Z,78.88
2017-11-19T06:04:06.329Z,78.80
2017-11-19T06:06:32.669Z,78.49
2017-11-19T06:08:59.049Z,78.69
2017-11-19T06:11:25.394Z,78.46
2017-11-19T06:13:51.733Z,77.87
2017-11-19T06:16:18.126Z,78.43
2017-11-19T06:18:44.473Z,78.37
2017-11-19T06:21:10.830Z,78.22
2017-11-19T06:23:37.211Z,78.42
2017-11-19T06:26:03.585Z,77.90
2017-11-19T06:28:29.983Z,78.20
2017-11-19T06:30:56.511Z,77.57
2017-11-19T06:33:22.880Z,77.75
2017-11-19T06:35:49.276Z,77.54
2017-11-19T06:38:15.667Z,77.77
2017-11-19T06:40:42.013Z,77.86
2017-11-19T06:43:08.370Z,77.77
2017-11-19T06:45:34.774Z,77.99
2017-11-19T06:48:01.166Z,77.25
2017-11-19T06:50:27.568Z,77.21
2017-11-19T06:52:53.977Z,77.40
2017-11-19T06:55:20.349Z,77.62
2017-11-19T06:57:46.689Z,77.43
2017-11-19T07:00:13.125Z,77.55
2017-11-19T07:02:39.477Z,77.52
2017-11-19T07:05:05.861Z,77.71
2017-11-19T07:07:32.242Z,78.00
2017-11-19T07:09:58.585Z,77.93
2017-11-19T07:12:24.929Z,77.39
2017-11-19T07:14:51.321Z,77.42
2017-11-19T07:17:17.698Z,77.22
2017-11-19T07:19:44.138Z,77.43
2017-11-19T07:22:10.550Z,77.34
2017-11-19T07:24:36.933Z,77.36
2017-11-19T07:27:03.349Z,77.28
2017-11-19T07:29:29.814Z,77.50
2017-11-19T07:31:56.251Z,77.08
2017-11-19T07:34:22.732Z,77.49
2017-11-19T07:36:49.238Z,77.13
2017-11-19T07:39:15.666Z,77.21
2017-11-19T07:41:42.083Z,76.74
2017-11-19T07:44:08.554Z,74.93
2017-11-19T07:46:34.979Z,76.20
2017-11-19T07:49:01.502Z,75.36
2017-11-19T07:51:28.022Z,75.60
2017-11-19T07:53:54.471Z,75.08
2017-11-19T07:56:20.890Z,75.78
2017-11-19T07:58:47.298Z,75.74
2017-11-19T08:01:13.724Z,75.60
2017-11-19T08:03:40.085Z,75.02
2017-11-19T08:06:06.569Z,74.53
2017-11-19T08:08:33.034Z,74.04
2017-11-19T08:10:59.414Z,73.99
2017-11-19T08:13:25.806Z,73.35
2017-11-19T08:15:52.150Z,74.04
2017-11-19T08:18:18.538Z,73.40
2017-11-19T08:20:44.964Z,73.33
2017-11-19T08:23:11.350Z,72.65
2017-11-19T08:25:37.750Z,72.61
2017-11-19T08:28:04.190Z,72.80
2017-11-19T08:30:30.619Z,72.31
2017-11-19T08:32:56.974Z,72.17
2017-11-19T08:35:23.410Z,71.07
2017-11-19T08:37:49.766Z,70.96
2017-11-19T08:40:16.114Z,70.38
2017-11-19T08:42:42.527Z,69.61
2017-11-19T08:45:08.890Z,70.17
2017-11-19T08:47:35.282Z,68.27
2017-11-19T08:50:01.706Z,68.19
2017-11-19T08:52:28.055Z,68.73
2017-11-19T08:54:54.402Z,68.54
2017-11-19T08:57:20.786Z,68.85
2017-11-19T08:59:47.129Z,68.47
2017-11-19T09:02:13.500Z,68.88
2017-11-19T09:04:39.965Z,71.40
2017-11-19T09:07:06.317Z,72.67
2017-11-19T09:09:32.678Z,73.33
2017-11-19T09:11:59.059Z,73.49
2017-11-19T09:14:25.419Z,74.02
2017-11-19T09:16:51.777Z,73.65
2017-11-19T09:19:18.155Z,73.81
2017-11-19T09:21:44.515Z,73.92
2017-11-19T09:24:10.893Z,73.64
2017-11-19T09:26:37.281Z,74.40
2017-11-19T09:29:03.642Z,73.32
2017-11-19T09:31:30.021Z,71.97
2017-11-19T09:33:56.421Z,69.24
2017-11-19T09:36:22.778Z,68.73
2017-11-19T09:38:49.167Z,68.31
2017-11-19T09:41:15.557Z,68.12
2017-11-19T09:43:41.897Z,68.87
2017-11-19T09:46:08.251Z,67.20
2017-11-19T09:48:34.665Z,67.81
2017-11-19T09:51:01.034Z,68.54
2017-11-19T09:53:27.382Z,67.65
2017-11-19T09:55:53.810Z,68.79
2017-11-19T09:58:20.270Z,68.83
2017-11-19T10:00:46.647Z,68.84
2017-11-19T10:03:13.135Z,68.95
2017-11-19T10:05:39.482Z,69.08
2017-11-19T10:08:05.899Z,69.33
2017-11-19T10:10:32.306Z,69.39
2017-11-19T10:12:58.682Z,69.12
2017-11-19T10:15:25.033Z,69.10
2017-11-19T10:17:51.405Z,68.94
2017-11-19T10:20:17.771Z,69.63
2017-11-19T10:22:44.170Z,69.94
2017-11-19T10:25:10.578Z,70.10
2017-11-19T10:27:36.929Z,69.55
2017-11-19T10:30:03.389Z,68.88
2017-11-19T10:32:29.777Z,69.23
2017-11-19T10:34:56.152Z,69.63
2017-11-19T10:37:22.505Z,68.29
2017-11-19T10:39:48.890Z,68.28
2017-11-19T10:42:15.252Z,68.73
2017-11-19T10:44:41.610Z,69.50
2017-11-19T10:47:07.984Z,68.36
2017-11-19T10:49:34.399Z,68.77
2017-11-19T10:52:00.753Z,69.33
2017-11-19T10:54:27.141Z,68.56
2017-11-19T10:56:53.618Z,68.31
2017-11-19T10:59:19.973Z,68.83
2017-11-19T11:01:46.508Z,69.14
2017-11-19T11:04:12.865Z,68.89
2017-11-19T11:06:39.201Z,68.08
2017-11-19T11:09:05.813Z,67.67
2017-11-19T11:11:32.168Z,67.97
2017-11-19T11:13:58.534Z,66.74
2017-11-19T11:16:25.070Z,67.66
2017-11-19T11:18:51.442Z,66.93
2017-11-19T11:21:17.802Z,67.36
2017-11-19T11:23:44.206Z,67.33
2017-11-19T11:26:10.566Z,67.23
2017-11-19T11:28:36.945Z,67.35
2017-11-19T11:31:03.335Z,67.89
2017-11-19T11:33:29.675Z,68.60
2017-11-19T11:35:56.045Z,69.10
2017-11-19T11:38:22.430Z,69.06
2017-11-19T11:40:48.788Z,68.79
2017-11-19T11:43:15.177Z,68.94
2017-11-19T11:45:41.598Z,68.24
2017-11-19T11:48:08.128Z,67.94
2017-11-19T11:50:34.560Z,68.62
2017-11-19T11:53:01.134Z,67.46
2017-11-19T11:55:27.490Z,66.62
2017-11-19T11:57:53.859Z,66.88
2017-11-19T12:00:20.318Z,65.92
2017-11-19T12:02:46.726Z,65.77
2017-11-19T12:05:13.097Z,65.29
2017-11-19T12:07:39.498Z,65.55
2017-11-19T12:10:05.854Z,65.96
2017-11-19T12:12:32.256Z,65.28
2017-11-19T12:14:58.665Z,65.31
2017-11-19T12:17:25.121Z,64.74
2017-11-19T12:19:51.482Z,64.93
2017-11-19T12:22:17.898Z,64.54
2017-11-19T12:24:44.284Z,64.77
2017-11-19T12:27:10.684Z,64.58
2017-11-19T12:29:37.138Z,64.20
2017-11-19T12:32:03.614Z,63.53
2017-11-19T12:34:30.025Z,63.50
2017-11-19T12:36:56.470Z,63.62
2017-11-19T12:39:22.853Z,64.64
2017-11-19T12:41:49.232Z,64.37
2017-11-19T12:44:15.786Z,63.58
2017-11-19T12:46:42.195Z,63.64
2017-11-19T12:49:08.565Z,62.93
2017-11-19T12:51:34.981Z,63.53
2017-11-19T12:54:01.347Z,64.04
2017-11-19T12:56:27.747Z,63.96
2017-11-19T12:58:54.334Z,64.40
2017-11-19T13:01:20.690Z,64.27
2017-11-19T13:03:47.045Z,65.54
2017-11-19T13:06:13.440Z,66.00
2017-11-19T13:08:39.809Z,65.15
2017-11-19T13:11:06.169Z,65.66
2017-11-19T13:13:32.568Z,64.46
2017-11-19T13:15:59.008Z,62.72
2017-11-19T13:18:25.442Z,62.87
2017-11-19T13:20:51.821Z,63.86
2017-11-19T13:23:18.313Z,64.90
2017-11-19T13:25:44.670Z,63.93
2017-11-19T13:28:11.174Z,62.99
2017-11-19T13:30:37.545Z,63.03
2017-11-19T13:33:03.938Z,62.96
2017-11-19T13:35:30.345Z,64.95
2017-11-19T13:37:56.702Z,65.12
2017-11-19T13:40:23.048Z,64.39
2017-11-19T13:42:49.446Z,63.38
2017-11-19T13:45:15.798Z,65.16
2017-11-19T13:47:42.154Z,65.35
2017-11-19T13:50:08.539Z,65.44
2017-11-19T13:52:34.914Z,65.46
2017-11-19T13:55:01.278Z,64.66
2017-11-19T13:57:27.686Z,65.68
2017-11-19T13:59:54.042Z,65.71
2017-11-19T14:02:20.385Z,64.36
2017-11-19T14:04:46.790Z,64.33
2017-11-19T14:07:13.138Z,66.16
2017-11-19T14:09:39.489Z,65.71
2017-11-19T14:12:05.890Z,66.21
2017-11-19T14:14:32.257Z,66.19
2017-11-19T14:16:58.610Z,66.85
2017-11-19T14:19:25.010Z,66.48
2017-11-19T14:21:51.374Z,66.14
2017-11-19T14:24:17.747Z,66.41
2017-11-19T14:26:44.145Z,65.60
2017-11-19T14:29:10.493Z,65.41
2017-11-19T14:31:36.846Z,66.23
2017-11-19T14:34:03.249Z,64.69
2017-11-19T14:36:29.609Z,64.64
2017-11-19T14:38:55.981Z,65.94
2017-11-19T14:41:22.398Z,66.30
2017-11-19T14:43:48.749Z,66.95
2017-11-19T14:46:15.109Z,67.70
2017-11-19T14:48:41.507Z,67.72
2017-11-19T14:51:07.933Z,67.82
2017-11-19T14:53:34.298Z,68.05
2017-11-19T14:56:00.691Z,68.19
2017-11-19T14:58:27.158Z,68.59
2017-11-19T15:00:53.507Z,68.57
2017-11-19T15:03:19.893Z,68.74
2017-11-19T15:05:46.254Z,69.01
2017-11-19T15:08:12.614Z,69.18
2017-11-19T15:10:39.020Z,69.14
2017-11-19T15:13:05.384Z,68.69
2017-11-19T15:15:31.884Z,68.89
2017-11-19T15:17:59.109Z,69.23
2017-11-19T15:20:25.475Z,69.26
2017-11-19T15:22:51.901Z,69.79
2017-11-19T15:25:18.294Z,70.03
2017-11-19T15:27:44.642Z,70.09
2017-11-19T15:30:11.001Z,70.22
2017-11-19T15:32:37.392Z,70.45
2017-11-19T15:35:03.774Z,70.81
2017-11-19T15:37:30.124Z,70.87
2017-11-19T15:39:56.507Z,70.97
2017-11-19T15:42:22.857Z,71.21
2017-11-19T15:44:49.827Z,71.64
2017-11-19T15:47:16.242Z,71.63
2017-11-19T15:49:42.593Z,72.03
2017-11-19T15:52:08.950Z,71.67
2017-11-19T15:54:35.387Z,71.61
2017-11-19T15:57:01.755Z,71.55
2017-11-19T15:59:28.118Z,71.95
2017-11-19T16:01:55.400Z,71.84
2017-11-19T16:04:21.794Z,71.56
2017-11-19T16:06:48.162Z,71.50
2017-11-19T16:09:15.625Z,72.12
2017-11-19T16:11:42.003Z,72.92
2017-11-19T16:14:08.366Z,72.30
2017-11-19T16:16:34.746Z,72.15
2017-11-19T16:19:01.103Z,71.74
2017-11-19T16:21:27.502Z,71.72
2017-11-19T16:23:53.922Z,72.33
2017-11-19T16:26:20.276Z,72.31
2017-11-19T16:28:47.606Z,72.14
2017-11-19T16:31:14.006Z,71.93
2017-11-19T16:33:41.019Z,72.18
2017-11-19T16:36:08.519Z,72.42
2017-11-19T16:38:34.919Z,72.43
2017-11-19T16:41:01.317Z,72.02
2017-11-19T16:43:27.782Z,71.78
2017-11-19T16:45:54.198Z,72.10
2017-11-19T16:48:21.470Z,72.55
2017-11-19T16:50:47.900Z,72.36
2017-11-19T16:53:14.281Z,72.57
2017-11-19T16:55:40.638Z,72.61
2017-11-19T16:58:08.019Z,72.78
2017-11-19T17:00:36.307Z,72.75
2017-11-19T17:03:02.697Z,72.92
2017-11-19T17:05:29.889Z,72.73
2017-11-19T17:07:56.383Z,72.86
2017-11-19T17:10:26.206Z,72.72
2017-11-19T17:12:52.892Z,72.65
2017-11-19T17:15:19.278Z,72.64
2017-11-19T17:17:45.786Z,72.79
2017-11-19T17:20:12.399Z,72.85
2017-11-19T17:22:38.883Z,72.95
2017-11-19T17:25:05.291Z,73.00
2017-11-19T17:27:31.685Z,72.79
2017-11-19T17:29:58.070Z,72.73
2017-11-19T17:32:24.486Z,72.98
2017-11-19T17:34:50.902Z,73.01
2017-11-19T17:37:17.486Z,73.12
2017-11-19T17:39:43.878Z,73.16
2017-11-19T17:42:10.254Z,73.26
2017-11-19T17:44:36.703Z,73.55
2017-11-19T17:47:03.751Z,73.38
2017-11-19T17:49:30.114Z,73.35
2017-11-19T17:51:56.557Z,71.70
2017-11-19T17:54:22.924Z,71.43
2017-11-19T17:56:49.302Z,70.62
2017-11-19T17:59:15.727Z,70.64
2017-11-19T18:01:43.169Z,71.10
2017-11-19T18:04:10.430Z,71.42
2017-11-19T18:06:36.813Z,71.71
2017-11-19T18:09:04.103Z,71.29
2017-11-19T18:11:30.465Z,71.16
2017-11-19T18:13:57.795Z,71.09
2017-11-19T18:16:24.143Z,71.30
2017-11-19T18:18:50.495Z,71.82
2017-11-19T18:21:16.897Z,72.11
2017-11-19T18:23:44.071Z,70.67
2017-11-19T18:26:11.267Z,70.42
2017-11-19T18:28:38.480Z,70.42
2017-11-19T18:31:06.642Z,70.61
2017-11-19T18:33:33.650Z,70.76
2017-11-19T18:36:00.048Z,70.86
2017-11-19T18:38:27.524Z,71.27
2017-11-19T18:40:53.901Z,71.38
2017-11-19T18:43:20.303Z,71.48
2017-11-19T18:45:46.938Z,71.72
2017-11-19T18:48:13.321Z,71.55
2017-11-19T18:50:39.791Z,70.92
2017-11-19T18:53:07.099Z,70.73
2017-11-19T18:55:33.779Z,70.60
2017-11-19T18:58:00.203Z,70.60
2017-11-19T19:00:26.612Z,70.73
2017-11-19T19:02:53.022Z,70.99
2017-11-19T19:05:20.427Z,70.64
2017-11-19T19:07:47.584Z,70.92
2017-11-19T19:10:14.810Z,70.77
2017-11-19T19:12:42.203Z,70.80
2017-11-19T19:15:08.611Z,70.94
2017-11-19T19:17:35.013Z,71.06
2017-11-19T19:20:01.495Z,70.24
2017-11-19T19:22:27.865Z,70.07
2017-11-19T19:24:54.326Z,69.95
2017-11-19T19:27:20.762Z,69.83
2017-11-19T19:29:47.440Z,70.04
2017-11-19T19:32:13.834Z,69.93
2017-11-19T19:34:41.627Z,69.54
2017-11-19T19:37:08.036Z,69.77
2017-11-19T19:39:35.197Z,69.68
2017-11-19T19:42:02.518Z,69.93
2017-11-19T19:44:29.424Z,69.46
2017-11-19T19:46:55.807Z,69.66
2017-11-19T19:49:23.850Z,69.78
2017-11-19T19:51:50.335Z,70.24
2017-11-19T19:54:18.271Z,70.25
2017-11-19T19:56:45.052Z,70.36
2017-11-19T19:59:12.200Z,70.73
2017-11-19T20:01:38.579Z,71.04
2017-11-19T20:04:04.982Z,71.25
2017-11-19T20:06:31.462Z,71.92
2017-11-19T20:08:58.249Z,72.37
2017-11-19T20:11:24.724Z,72.28
2017-11-19T20:13:51.078Z,72.22
2017-11-19T20:16:18.333Z,72.41
2017-11-19T20:18:44.755Z,72.70
2017-11-19T20:21:11.267Z,73.11
2017-11-19T20:23:37.642Z,73.05
2017-11-19T20:26:04.074Z,73.13
2017-11-19T20:28:30.572Z,73.09
2017-11-19T20:30:56.960Z,73.15
2017-11-19T20:33:23.777Z,73.25
2017-11-19T20:35:51.048Z,73.22
2017-11-19T20:38:17.532Z,73.24
2017-11-19T20:40:43.939Z,73.34
2017-11-19T20:43:10.397Z,73.43
2017-11-19T20:45:36.787Z,73.49
2017-11-19T20:48:03.275Z,73.49
2017-11-19T20:50:29.619Z,73.46
2017-11-19T20:52:56.027Z,73.48
2017-11-19T20:55:22.493Z,73.41
2017-11-19T20:57:49.238Z,73.47
2017-11-19T21:00:15.613Z,73.50
2017-11-19T21:02:42.046Z,73.69
2017-11-19T21:05:08.439Z,73.74
2017-11-19T21:07:34.802Z,73.61
2017-11-19T21:10:01.386Z,73.74
2017-11-19T21:12:27.749Z,73.62
2017-11-19T21:14:54.517Z,73.49
2017-11-19T21:17:20.910Z,73.57
2017-11-19T21:19:47.412Z,73.37
2017-11-19T21:22:13.768Z,73.39
2017-11-19T21:24:40.158Z,73.22
2017-11-19T21:27:07.362Z,73.24
2017-11-19T21:29:34.042Z,73.48
2017-11-19T21:32:00.449Z,73.68
2017-11-19T21:34:26.932Z,73.64
2017-11-19T21:36:53.277Z,73.06
2017-11-19T21:39:19.709Z,73.06
2017-11-19T21:41:46.138Z,73.19
2017-11-19T21:44:13.257Z,73.48
2017-11-19T21:46:39.711Z,74.21
2017-11-19T21:49:06.348Z,73.41
2017-11-19T21:51:32.784Z,72.82
2017-11-19T21:53:59.333Z,72.91
2017-11-19T21:56:26.273Z,73.41
2017-11-19T21:58:53.693Z,73.26
2017-11-19T22:01:20.122Z,73.00
2017-11-19T22:03:46.483Z,73.15
2017-11-19T22:06:12.841Z,73.27
2017-11-19T22:08:39.270Z,73.26
2017-11-19T22:11:05.681Z,73.14
2017-11-19T22:13:32.322Z,73.19
2017-11-19T22:15:58.753Z,73.39
2017-11-19T22:18:25.323Z,73.39
2017-11-19T22:20:51.676Z,73.69
2017-11-19T22:23:18.093Z,73.46
2017-11-19T22:25:44.468Z,73.57
2017-11-19T22:28:10.816Z,73.62
2017-11-19T22:30:37.249Z,73.75
2017-11-19T22:33:03.608Z,73.84
2017-11-19T22:35:29.961Z,73.63
2017-11-19T22:37:56.378Z,73.71
2017-11-19T22:40:22.724Z,73.82
2017-11-19T22:42:49.190Z,73.79
2017-11-19T22:45:15.613Z,73.74
2017-11-19T22:47:41.976Z,73.76
2017-11-19T22:50:08.335Z,73.72
2017-11-19T22:52:34.842Z,73.72
2017-11-19T22:55:01.242Z,74.52
2017-11-19T22:57:27.610Z,73.05
2017-11-19T22:59:54.014Z,72.49
2017-11-19T23:02:20.353Z,72.51
2017-11-19T23:04:46.738Z,72.61
2017-11-19T23:07:13.117Z,73.35
2017-11-19T23:09:39.465Z,73.17
2017-11-19T23:12:05.833Z,73.06
2017-11-19T23:14:32.229Z,73.40
2017-11-19T23:16:58.580Z,73.50
2017-11-19T23:19:24.921Z,73.56
2017-11-19T23:21:51.325Z,73.72
2017-11-19T23:24:17.672Z,74.42
2017-11-19T23:26:44.013Z,74.68
2017-11-19T23:29:10.385Z,75.22
2017-11-19T23:31:36.725Z,75.46
2017-11-19T23:34:03.185Z,75.77
2017-11-19T23:36:29.593Z,76.51
2017-11-19T23:38:55.933Z,76.91
2017-11-19T23:41:22.274Z,76.93
2017-11-19T23:43:48.714Z,77.47
2017-11-19T23:46:15.079Z,76.79
2017-11-19T23:48:41.426Z,76.72
2017-11-19T23:51:07.845Z,77.51
2017-11-19T23:53:34.173Z,77.36
2017-11-19T23:56:00.513Z,77.74
2017-11-19T23:58:26.921Z,77.92
